Time;durP1;ratioP1;P1;durP2;ratioP2;P2;SDS_P1;SDS_P2;PMS_P1;PMS_P2;Temp;Humidity;BMP_temperature;BMP_pressure;BME280_temperature;BME280_humidity;BME280_pressure;Samples;Min_cycle;Max_cycle;Signal;HPM_P1;HPM_P2
2022/04/14 00:01:28;;;;;;;13.82;8.90;;;11.60;99.90;;;;;;2115475;67;20721;-81
2022/04/14 00:04:12;;;;;;;12.18;7.80;;;11.50;99.90;;;;;;2115461;67;20233;-81
2022/04/14 00:06:54;;;;;;;26.38;8.48;;;11.50;99.90;;;;;;2116722;67;20322;-83
2022/04/14 00:09:38;;;;;;;14.35;7.55;;;11.50;99.90;;;;;;2112033;67;20701;-82
2022/04/14 00:12:22;;;;;;;10.95;7.88;;;11.50;99.90;;;;;;2098534;68;20294;-81
2022/04/14 00:15:11;;;;;;;15.52;7.90;;;11.40;99.90;;;;;;2098343;67;20323;-83
2022/04/14 00:17:53;;;;;;;11.10;8.23;;;11.40;99.90;;;;;;2110221;67;20186;-81
2022/04/14 00:20:36;;;;;;;14.93;8.73;;;11.40;99.90;;;;;;2084507;68;20188;-81
2022/04/14 00:23:18;;;;;;;10.85;8.23;;;11.40;99.90;;;;;;2084441;68;20251;-81
2022/04/14 00:26:01;;;;;;;14.57;8.93;;;11.40;99.90;;;;;;2093626;67;20316;-82
2022/04/14 00:28:46;;;;;;;15.50;8.60;;;11.30;99.90;;;;;;2095483;68;20251;-81
2022/04/14 00:31:29;;;;;;;11.45;8.45;;;11.30;99.90;;;;;;2076099;68;20690;-82
2022/04/14 00:34:14;;;;;;;12.60;8.68;;;11.30;99.90;;;;;;2104981;68;20265;-81
2022/04/14 00:36:59;;;;;;;13.00;9.27;;;11.50;99.90;;;;;;2110850;67;20240;-82
2022/04/14 00:39:43;;;;;;;11.85;9.43;;;11.20;99.90;;;;;;2112081;67;20342;-81
2022/04/14 00:42:25;;;;;;;17.48;9.02;;;11.20;99.90;;;;;;2119682;67;20273;-82
2022/04/14 00:45:09;;;;;;;18.67;10.57;;;11.10;99.90;;;;;;2127328;67;20192;-82
2022/04/14 00:47:54;;;;;;;17.77;10.20;;;11.10;99.90;;;;;;2118256;67;20346;-82
2022/04/14 00:50:36;;;;;;;15.70;10.52;;;11.00;99.90;;;;;;2099025;68;20324;-82
2022/04/14 00:53:19;;;;;;;15.15;11.25;;;11.00;99.90;;;;;;2094816;67;20261;-81
2022/04/14 00:56:02;;;;;;;19.88;11.82;;;10.90;99.90;;;;;;2114864;67;20178;-82
2022/04/14 00:58:47;;;;;;;14.30;10.60;;;10.90;99.90;;;;;;2110247;67;20202;-80
2022/04/14 01:01:28;;;;;;;15.38;11.02;;;10.80;99.90;;;;;;2109982;67;20656;-82
2022/04/14 01:04:12;;;;;;;14.57;10.52;;;10.70;99.90;;;;;;2118774;67;20255;-81
2022/04/14 01:06:54;;;;;;;16.13;10.80;;;10.60;99.90;;;;;;2105384;67;20190;-81
2022/04/14 01:09:36;;;;;;;16.58;11.07;;;10.60;99.90;;;;;;2109084;67;20205;-80
2022/04/14 01:12:21;;;;;;;17.02;11.18;;;10.60;99.90;;;;;;2098213;68;20335;-82
2022/04/14 01:15:11;;;;;;;17.40;11.13;;;10.50;99.90;;;;;;2091217;68;20309;-80
2022/04/14 01:17:53;;;;;;;15.65;11.18;;;10.40;99.90;;;;;;2097977;68;20717;-80
2022/04/14 01:20:36;;;;;;;17.08;11.43;;;10.40;99.90;;;;;;2108887;67;20261;-81
2022/04/14 01:23:25;;;;;;;16.08;12.15;;;10.40;99.90;;;;;;2101536;68;20524;-82
2022/04/14 01:26:08;;;;;;;17.77;12.07;;;10.30;99.90;;;;;;2096432;68;20175;-81
2022/04/14 01:28:52;;;;;;;19.88;12.05;;;10.30;99.90;;;;;;2093767;68;20668;-80
2022/04/14 01:31:39;;;;;;;17.33;12.32;;;10.30;99.90;;;;;;2077205;69;20340;-81
2022/04/14 01:34:21;;;;;;;17.23;11.65;;;10.30;99.90;;;;;;2099134;68;20322;-82
2022/04/14 01:37:08;;;;;;;17.73;11.95;;;10.20;99.90;;;;;;2097306;68;20373;-83
2022/04/14 01:39:51;;;;;;;21.75;12.70;;;10.20;99.90;;;;;;2101314;67;20609;-82
2022/04/14 01:42:35;;;;;;;19.88;12.57;;;10.20;99.90;;;;;;2100062;68;20262;-82
2022/04/14 01:45:20;;;;;;;17.33;12.18;;;10.10;99.90;;;;;;2108391;67;20182;-82
2022/04/14 01:48:03;;;;;;;18.20;11.90;;;10.10;99.90;;;;;;2115290;67;20222;-81
2022/04/14 01:50:44;;;;;;;16.40;12.38;;;10.10;99.90;;;;;;2106235;67;20182;-81
2022/04/14 01:53:26;;;;;;;19.98;12.57;;;10.00;99.90;;;;;;2096912;68;20749;-82
2022/04/14 01:56:10;;;;;;;17.17;13.23;;;10.00;99.90;;;;;;2109068;67;20606;-82
2022/04/14 01:58:58;;;;;;;27.90;15.25;;;10.00;99.90;;;;;;2127019;67;20368;-82
2022/04/14 02:01:40;;;;;;;18.10;13.02;;;10.00;99.90;;;;;;2129557;67;20248;-82
2022/04/14 02:04:24;;;;;;;18.25;13.90;;;9.90;99.90;;;;;;2128501;67;20164;-82
2022/04/14 02:07:09;;;;;;;;;;;9.80;99.90;;;;;;2111526;67;20266;-82
2022/04/14 02:09:51;;;;;;;22.98;13.82;;;9.80;99.90;;;;;;2107446;67;20730;-80
2022/04/14 02:12:36;;;;;;;18.15;14.73;;;9.70;99.90;;;;;;2099189;68;20182;-82
2022/04/14 02:15:22;;;;;;;22.15;14.63;;;9.70;99.90;;;;;;2101797;67;20267;-81
2022/04/14 02:18:04;;;;;;;23.05;15.55;;;9.60;99.90;;;;;;2113098;67;20347;-82
2022/04/14 02:20:46;;;;;;;20.10;14.52;;;9.60;99.90;;;;;;2101751;67;20364;-82
2022/04/14 02:23:28;;;;;;;20.52;14.93;;;9.60;99.90;;;;;;2096560;68;20245;-82
2022/04/14 02:26:11;;;;;;;19.65;15.23;;;9.50;99.90;;;;;;2105354;67;20794;-82
2022/04/14 02:28:56;;;;;;;23.40;16.00;;;9.50;99.90;;;;;;2091343;68;20285;-82
2022/04/14 02:31:41;;;;;;;19.95;15.00;;;9.40;99.90;;;;;;2086291;68;20238;-82
2022/04/14 02:34:24;;;;;;;20.80;15.23;;;9.40;99.90;;;;;;2085588;68;20329;-81
2022/04/14 02:37:07;;;;;;;21.48;15.65;;;9.40;99.90;;;;;;2102706;67;20290;-81
2022/04/14 02:39:54;;;;;;;21.75;15.40;;;9.30;99.90;;;;;;2117195;67;20816;-81
2022/04/14 02:42:41;;;;;;;23.83;15.05;;;9.30;99.90;;;;;;2092402;68;20337;-81
2022/04/14 02:45:24;;;;;;;20.52;15.20;;;9.30;99.90;;;;;;2091853;68;20258;-82
2022/04/14 02:48:08;;;;;;;;;;;9.30;99.90;;;;;;2083975;68;20330;-82
2022/04/14 02:50:51;;;;;;;27.15;16.58;;;9.20;99.90;;;;;;2099913;68;20054;-82
2022/04/14 02:53:36;;;;;;;24.92;17.08;;;9.20;99.90;;;;;;2098954;68;20349;-81
2022/04/14 02:56:21;;;;;;;24.45;17.00;;;9.20;99.90;;;;;;2089889;68;20368;-83
2022/04/14 02:59:04;;;;;;;23.38;17.13;;;9.10;99.90;;;;;;2077772;69;20243;-81
2022/04/14 03:01:49;;;;;;;26.95;17.42;;;9.10;99.90;;;;;;2077427;68;20394;-81
2022/04/14 03:04:31;;;;;;;26.90;18.48;;;9.10;99.90;;;;;;2090734;68;20213;-81
2022/04/14 03:07:13;;;;;;;24.92;18.33;;;9.10;99.90;;;;;;2100072;68;20258;-81
2022/04/14 03:09:56;;;;;;;27.35;18.90;;;9.00;99.90;;;;;;2100530;67;20378;-83
2022/04/14 03:12:41;;;;;;;;;;;9.00;99.90;;;;;;2110429;67;20209;-82
2022/04/14 03:15:23;;;;;;;26.42;18.67;;;9.00;99.90;;;;;;2133663;67;20056;-81
2022/04/14 03:18:05;;;;;;;30.05;19.60;;;9.00;99.90;;;;;;2125400;67;20272;-82
2022/04/14 03:20:47;;;;;;;30.65;20.00;;;8.90;99.90;;;;;;2144129;66;20286;-81
2022/04/14 03:23:31;;;;;;;30.33;19.50;;;8.90;99.90;;;;;;2127006;67;20793;-81
2022/04/14 03:26:17;;;;;;;28.08;19.55;;;8.90;99.90;;;;;;2130818;67;20167;-81
2022/04/14 03:29:01;;;;;;;;;;;8.90;99.90;;;;;;2120023;67;20396;-81
2022/04/14 03:31:47;;;;;;;29.20;20.50;;;8.80;99.90;;;;;;2133031;67;20220;-82
2022/04/14 03:34:33;;;;;;;31.20;21.23;;;8.80;99.90;;;;;;2135388;67;20246;-81
2022/04/14 03:37:17;;;;;;;;;;;8.80;99.90;;;;;;2132987;67;20196;-82
2022/04/14 03:39:59;;;;;;;33.35;22.33;;;8.70;99.90;;;;;;2133583;67;20055;-82
2022/04/14 03:42:41;;;;;;;33.13;23.08;;;8.70;99.90;;;;;;2122091;67;20280;-82
2022/04/14 03:45:23;;;;;;;41.85;24.38;;;8.60;99.90;;;;;;2114503;67;20188;-83
2022/04/14 03:48:06;;;;;;;35.15;25.85;;;8.60;99.90;;;;;;2103008;67;20251;-82
2022/04/14 03:50:48;;;;;;;37.22;25.15;;;8.60;99.90;;;;;;2119320;67;20348;-82
2022/04/14 03:53:33;;;;;;;40.25;27.48;;;8.50;99.90;;;;;;2115133;67;20221;-82
2022/04/14 03:56:18;;;;;;;41.63;27.77;;;8.50;99.90;;;;;;2104398;67;20270;-82
2022/04/14 03:59:00;;;;;;;38.60;25.75;;;8.50;99.90;;;;;;2105048;67;20765;-82
2022/04/14 04:01:42;;;;;;;44.10;27.52;;;8.50;99.90;;;;;;2118966;67;20748;-81
2022/04/14 04:04:24;;;;;;;44.05;27.45;;;8.50;99.90;;;;;;2117939;67;20185;-82
2022/04/14 04:07:06;;;;;;;41.30;27.95;;;8.30;99.90;;;;;;2091461;68;20205;-83
2022/04/14 04:09:50;;;;;;;37.78;27.85;;;8.40;99.90;;;;;;2084832;68;20374;-84
2022/04/14 04:12:34;;;;;;;43.78;29.83;;;8.40;99.90;;;;;;2095230;68;20882;-81
2022/04/14 04:15:19;;;;;;;44.60;30.70;;;8.40;99.90;;;;;;2089418;68;20797;-82
2022/04/14 04:18:01;;;;;;;44.03;29.65;;;7.90;99.90;;;;;;2098184;68;20500;-81
2022/04/14 04:20:45;;;;;;;43.47;32.38;;;8.30;99.90;;;;;;2103002;67;20214;-82
2022/04/14 04:23:30;;;;;;;47.60;32.60;;;8.30;99.90;;;;;;2119591;67;20720;-81
2022/04/14 04:26:13;;;;;;;46.67;31.60;;;8.20;99.90;;;;;;2127325;67;20274;-83
2022/04/14 04:28:58;;;;;;;45.38;30.20;;;8.20;99.90;;;;;;2113218;67;20185;-81
2022/04/14 04:31:40;;;;;;;50.83;34.25;;;8.60;99.90;;;;;;2104258;67;20253;-83
2022/04/14 04:34:22;;;;;;;47.58;31.20;;;8.10;99.90;;;;;;2105375;67;20297;-82
2022/04/14 04:37:10;;;;;;;52.20;34.67;;;8.10;99.90;;;;;;2093880;68;20214;-82
2022/04/14 04:39:51;;;;;;;48.13;32.72;;;8.10;99.90;;;;;;2101785;68;20329;-82
2022/04/14 04:42:35;;;;;;;50.03;35.75;;;8.10;99.90;;;;;;2099869;68;20394;-82
2022/04/14 04:45:20;;;;;;;48.53;32.00;;;8.10;99.90;;;;;;2107006;67;20241;-81
2022/04/14 04:48:04;;;;;;;48.97;34.28;;;8.10;99.90;;;;;;2106646;67;20807;-82
2022/04/14 04:50:46;;;;;;;61.63;38.22;;;8.10;99.90;;;;;;2112324;67;20329;-82
2022/04/14 04:53:33;;;;;;;57.45;36.40;;;8.10;99.90;;;;;;2126137;67;20295;-83
2022/04/14 04:56:18;;;;;;;59.33;38.05;;;8.10;99.90;;;;;;2119323;67;20302;-81
2022/04/14 04:59:00;;;;;;;49.95;35.05;;;8.10;99.90;;;;;;2119860;67;20321;-82
2022/04/14 05:01:41;;;;;;;55.33;35.70;;;8.00;99.90;;;;;;2123830;67;20786;-82
2022/04/14 05:04:24;;;;;;;51.60;35.67;;;8.00;99.90;;;;;;2112024;67;20304;-80
2022/04/14 05:07:06;;;;;;;49.15;37.17;;;8.10;99.90;;;;;;2112812;67;20244;-82
2022/04/14 05:09:51;;;;;;;56.83;37.00;;;8.00;99.90;;;;;;2115979;67;20193;-82
2022/04/14 05:12:34;;;;;;;63.08;38.33;;;8.00;99.90;;;;;;2116776;67;20738;-81
2022/04/14 05:15:21;;;;;;;58.22;37.35;;;8.00;99.90;;;;;;2137780;67;20175;-81
2022/04/14 05:18:09;;;;;;;64.60;40.65;;;8.00;99.90;;;;;;2128745;67;20208;-81
2022/04/14 05:21:10;;;;;;;58.20;38.58;;;8.10;99.90;;;;;;2120897;67;20181;-82
2022/04/14 05:23:55;;;;;;;61.55;40.95;;;8.00;99.90;;;;;;2119605;67;20421;-82
2022/04/14 05:26:40;;;;;;;57.15;38.42;;;8.10;99.90;;;;;;2126786;67;20411;-81
2022/04/14 05:29:22;;;;;;;61.72;40.03;;;8.20;99.90;;;;;;2146309;66;20295;-80
2022/04/14 05:32:08;;;;;;;65.80;38.22;;;8.20;99.90;;;;;;2139080;66;20418;-81
2022/04/14 05:34:50;;;;;;;59.85;38.38;;;8.30;99.90;;;;;;2138251;67;20555;-82
2022/04/14 05:37:35;;;;;;;53.80;38.05;;;8.40;99.90;;;;;;2133783;67;20782;-81
2022/04/14 05:40:21;;;;;;;61.72;38.63;;;8.50;99.90;;;;;;2124582;67;20192;-82
2022/04/14 05:43:03;;;;;;;67.38;41.33;;;8.50;99.90;;;;;;2109449;67;20333;-81
2022/04/14 05:45:47;;;;;;;54.75;37.95;;;8.60;99.90;;;;;;2106745;67;20270;-82
2022/04/14 05:48:29;;;;;;;58.55;37.22;;;8.60;99.90;;;;;;2113368;67;20338;-83
2022/04/14 05:51:11;;;;;;;55.17;38.78;;;8.70;99.90;;;;;;2111846;67;20219;-82
2022/04/14 05:53:53;;;;;;;55.97;38.45;;;8.70;99.90;;;;;;2114855;67;20268;-82
2022/04/14 05:56:57;;;;;;;61.45;37.60;;;8.80;99.90;;;;;;2099582;68;20336;-82
2022/04/14 05:59:41;;;;;;;55.80;37.63;;;8.90;99.90;;;;;;2088635;68;20392;-83
2022/04/14 06:02:26;;;;;;;56.65;37.53;;;8.90;99.90;;;;;;2088943;68;20286;-86
2022/04/14 06:05:16;;;;;;;52.40;36.28;;;8.90;99.90;;;;;;2102012;68;20289;-85
2022/04/14 06:07:59;;;;;;;57.55;36.58;;;8.90;99.90;;;;;;2108506;67;20212;-85
2022/04/14 06:10:49;;;;;;;55.33;37.17;;;9.00;99.90;;;;;;2123741;67;20401;-80
2022/04/14 06:13:33;;;;;;;50.20;35.17;;;9.00;99.90;;;;;;2118310;67;20332;-79
2022/04/14 06:16:18;;;;;;;57.42;38.85;;;9.00;99.90;;;;;;2122776;67;20724;-80
2022/04/14 06:19:00;;;;;;;48.78;35.75;;;9.10;99.90;;;;;;2120483;67;20210;-82
2022/04/14 06:21:44;;;;;;;53.88;36.88;;;9.20;99.90;;;;;;2114461;67;20279;-79
2022/04/14 06:24:26;;;;;;;55.17;36.75;;;9.30;99.90;;;;;;2117446;67;20642;-80
2022/04/14 06:27:10;;;;;;;54.92;37.08;;;9.40;99.90;;;;;;2108709;67;20462;-80
2022/04/14 06:29:52;;;;;;;56.33;35.08;;;9.50;99.90;;;;;;2099349;68;20395;-83
2022/04/14 06:32:34;;;;;;;54.42;37.22;;;9.50;99.90;;;;;;2109635;67;20387;-84
2022/04/14 06:35:18;;;;;;;51.80;36.83;;;9.60;99.90;;;;;;2104344;68;20389;-84
2022/04/14 06:38:05;;;;;;;46.63;33.97;;;9.60;99.90;;;;;;2096187;68;20754;-83
2022/04/14 06:40:48;;;;;;;50.03;32.92;;;9.60;99.90;;;;;;2104182;68;20229;-84
2022/04/14 06:43:34;;;;;;;43.70;31.30;;;9.70;99.90;;;;;;2096028;68;20225;-83
2022/04/14 06:46:20;;;;;;;43.67;31.00;;;9.80;99.90;;;;;;2095288;68;20382;-83
2022/04/14 06:49:05;;;;;;;;;;;9.70;99.90;;;;;;2094263;68;20224;-81
2022/04/14 06:51:48;;;;;;;42.38;30.50;;;9.90;99.90;;;;;;2104158;67;20200;-82
2022/04/14 06:54:30;;;;;;;46.22;31.10;;;10.00;99.90;;;;;;2118183;67;20349;-83
2022/04/14 06:57:20;;;;;;;39.05;29.08;;;10.00;99.90;;;;;;2111718;67;22635;-80
2022/04/14 07:00:05;;;;;;;38.67;25.25;;;10.10;99.90;;;;;;2100049;68;20191;-82
2022/04/14 07:02:51;;;;;;;36.20;28.90;;;10.20;99.90;;;;;;2111768;67;20687;-81
2022/04/14 07:05:26;;;;;;;39.15;25.10;;;10.30;99.90;;;;;;2111511;67;20170;-82
2022/04/14 07:07:57;;;;;;;39.70;27.38;;;10.20;99.90;;;;;;2122557;67;20735;-81
2022/04/14 07:10:32;;;;;;;34.22;25.58;;;10.40;99.90;;;;;;2130390;67;20325;-82
2022/04/14 07:13:09;;;;;;;33.97;24.08;;;10.50;99.90;;;;;;2133270;67;20638;-82
2022/04/14 07:16:00;;;;;;;35.92;24.40;;;10.60;99.90;;;;;;2127972;67;20228;-83
2022/04/14 07:18:36;;;;;;;32.95;22.63;;;10.70;99.90;;;;;;2134561;67;20716;-84
2022/04/14 07:21:30;;;;;;;33.47;23.42;;;10.70;99.90;;;;;;2137518;66;20366;-81
2022/04/14 07:24:11;;;;;;;29.08;21.77;;;10.80;99.90;;;;;;2141347;67;20297;-82
2022/04/14 07:27:04;;;;;;;35.47;24.75;;;10.80;99.90;;;;;;2142453;67;20258;-85
2022/04/14 07:29:43;;;;;;;33.70;22.85;;;10.90;99.90;;;;;;2160968;66;20216;-80
2022/04/14 07:32:22;;;;;;;32.22;23.52;;;11.00;99.90;;;;;;2181340;65;20282;-80
2022/04/14 07:35:00;;;;;;;27.38;21.25;;;11.10;99.90;;;;;;2192416;65;20323;-81
2022/04/14 07:37:38;;;;;;;27.95;21.17;;;11.20;99.90;;;;;;2194444;65;20233;-79
2022/04/14 07:40:14;;;;;;;28.58;20.98;;;11.30;99.90;;;;;;2194219;65;20452;-79
2022/04/14 07:42:58;;;;;;;30.77;23.13;;;11.30;99.90;;;;;;2203705;65;20326;-79
2022/04/14 07:45:30;;;;;;;27.50;20.60;;;11.40;99.90;;;;;;2213061;64;20272;-79
2022/04/14 07:48:10;;;;;;;30.17;20.80;;;11.50;99.90;;;;;;2212406;64;20246;-79
2022/04/14 07:50:50;;;;;;;30.95;22.65;;;11.50;99.90;;;;;;2210200;64;20262;-77
2022/04/14 07:53:41;;;;;;;31.08;21.55;;;11.60;99.90;;;;;;2210408;65;20188;-79
2022/04/14 07:56:20;;;;;;;27.77;21.05;;;11.70;99.90;;;;;;2209605;65;20723;-77
2022/04/14 07:58:53;;;;;;;28.92;21.55;;;11.70;99.90;;;;;;2200802;65;20692;-78
2022/04/14 08:01:32;;;;;;;27.95;21.67;;;11.80;99.90;;;;;;2203390;65;20153;-79
2022/04/14 08:04:14;;;;;;;29.52;21.67;;;11.80;99.90;;;;;;2197610;65;20238;-79
2022/04/14 08:06:58;;;;;;;26.40;19.95;;;11.90;99.90;;;;;;2187164;65;20262;-79
2022/04/14 08:09:46;;;;;;;30.83;20.20;;;11.90;99.90;;;;;;2184850;65;20421;-83
2022/04/14 08:12:23;;;;;;;29.02;20.83;;;12.00;99.90;;;;;;2178740;65;20183;-81
2022/04/14 08:14:54;;;;;;;27.10;20.67;;;12.20;99.90;;;;;;2183434;65;20211;-79
2022/04/14 08:17:46;;;;;;;26.52;19.80;;;12.20;99.90;;;;;;2170346;65;20600;-80
2022/04/14 08:20:23;;;;;;;26.58;19.52;;;12.30;99.90;;;;;;2171559;65;20660;-78
2022/04/14 08:23:00;;;;;;;27.35;20.02;;;12.40;99.90;;;;;;2182869;65;20166;-80
2022/04/14 08:25:43;;;;;;;25.80;18.42;;;12.50;99.90;;;;;;2178255;65;20208;-79
2022/04/14 08:28:15;;;;;;;26.90;19.25;;;12.60;99.90;;;;;;2177111;65;20730;-80
2022/04/14 08:30:54;;;;;;;23.38;18.00;;;12.70;99.90;;;;;;2176910;65;20304;-79
2022/04/14 08:33:25;;;;;;;24.63;17.45;;;12.70;99.90;;;;;;2176903;65;20294;-79
2022/04/14 08:36:21;;;;;;;22.38;17.42;;;12.80;99.90;;;;;;2182454;65;20214;-79
2022/04/14 08:39:15;;;;;;;23.77;16.83;;;12.90;99.90;;;;;;2177109;65;20372;-79
2022/04/14 08:42:03;;;;;;;21.70;16.50;;;13.00;99.90;;;;;;2177299;65;20345;-78
2022/04/14 08:44:49;;;;;;;21.30;16.77;;;13.10;99.90;;;;;;2178551;65;20209;-79
2022/04/14 08:47:22;;;;;;;21.15;16.42;;;13.20;99.90;;;;;;2177713;65;20187;-78
2022/04/14 08:49:54;;;;;;;18.83;14.95;;;13.20;99.90;;;;;;2177243;65;20271;-79
2022/04/14 08:52:49;;;;;;;21.73;16.42;;;13.30;99.90;;;;;;2169210;66;20264;-80
2022/04/14 08:55:27;;;;;;;19.48;15.55;;;13.50;99.90;;;;;;2169904;66;20291;-84
2022/04/14 08:58:04;;;;;;;17.35;13.90;;;13.60;99.90;;;;;;2183664;65;20324;-81
2022/04/14 09:00:34;;;;;;;17.52;14.35;;;13.70;99.90;;;;;;2185203;65;20195;-79
2022/04/14 09:03:05;;;;;;;17.80;14.48;;;13.70;99.90;;;;;;2200077;65;20355;-80
2022/04/14 09:05:44;;;;;;;20.80;12.05;;;13.80;99.90;;;;;;2200117;65;20354;-82
2022/04/14 09:08:35;;;;;;;15.75;10.45;;;13.80;99.90;;;;;;2200419;65;20354;-82
2022/04/14 09:11:18;;;;;;;15.30;10.55;;;13.90;99.90;;;;;;2195006;65;20302;-81
2022/04/14 09:14:01;;;;;;;13.20;10.07;;;14.00;99.90;;;;;;2178071;65;20525;-80
2022/04/14 09:16:43;;;;;;;13.05;10.27;;;14.00;99.90;;;;;;2164048;66;20275;-83
2022/04/14 09:19:28;;;;;;;13.35;10.30;;;14.20;99.90;;;;;;2149495;66;20282;-83
2022/04/14 09:22:13;;;;;;;14.50;10.20;;;14.20;99.90;;;;;;2134167;67;20207;-80
2022/04/14 09:24:57;;;;;;;13.30;11.05;;;14.30;99.90;;;;;;2119446;67;20682;-83
2022/04/14 09:27:41;;;;;;;14.43;11.13;;;14.40;99.90;;;;;;2116416;67;20289;-86
2022/04/14 09:30:23;;;;;;;12.50;10.05;;;14.40;99.90;;;;;;2106111;67;20231;-82
2022/04/14 09:33:04;;;;;;;12.18;9.77;;;14.50;99.90;;;;;;2104783;68;20647;-80
2022/04/14 09:35:32;;;;;;;13.93;9.65;;;14.70;99.90;;;;;;2104758;67;20202;-78
2022/04/14 09:38:13;;;;;;;13.40;9.75;;;14.70;99.90;;;;;;2104886;68;20667;-79
2022/04/14 09:40:50;;;;;;;12.57;9.32;;;14.80;99.90;;;;;;2111735;67;20177;-78
2022/04/14 09:43:28;;;;;;;10.63;8.35;;;14.80;99.90;;;;;;2118399;67;20196;-79
2022/04/14 09:46:19;;;;;;;9.88;8.85;;;15.00;99.90;;;;;;2132026;67;20470;-79
2022/04/14 09:49:16;;;;;;;14.77;8.60;;;15.10;99.90;;;;;;2134091;66;20758;-77
2022/04/14 09:51:53;;;;;;;11.80;9.07;;;15.20;99.90;;;;;;2162494;66;20222;-79
2022/04/14 09:54:30;;;;;;;11.60;9.18;;;15.40;99.90;;;;;;2171012;65;20317;-76
2022/04/14 09:57:11;;;;;;;11.45;9.60;;;15.40;99.90;;;;;;2177428;65;20932;-82
2022/04/14 10:00:02;;;;;;;11.25;8.70;;;15.50;99.90;;;;;;2177876;65;20247;-80
2022/04/14 10:02:41;;;;;;;11.40;8.57;;;15.70;99.90;;;;;;2195090;65;20335;-85
2022/04/14 10:05:34;;;;;;;12.98;9.38;;;15.70;99.90;;;;;;2197242;65;20173;-86
2022/04/14 10:08:25;;;;;;;14.23;8.73;;;15.60;99.90;;;;;;2182114;65;20878;-81
2022/04/14 10:11:10;;;;;;;10.63;8.23;;;15.60;99.90;;;;;;2179034;65;20287;-79
2022/04/14 10:13:47;;;;;;;;;;;15.70;99.90;;;;;;2179637;65;20336;-80
2022/04/14 10:16:25;;;;;;;10.55;8.45;;;15.70;99.90;;;;;;2179782;65;20195;-84
2022/04/14 10:18:59;;;;;;;10.88;8.55;;;15.80;99.90;;;;;;2198682;65;20229;-83
2022/04/14 10:21:39;;;;;;;9.98;8.98;;;15.90;99.90;;;;;;2199772;65;20215;-81
2022/04/14 10:24:35;;;;;;;11.15;7.80;;;16.00;99.90;;;;;;2184931;65;20190;-85
2022/04/14 10:27:16;;;;;;;9.85;7.40;;;16.30;99.90;;;;;;2184472;65;20174;-84
2022/04/14 10:29:55;;;;;;;9.88;7.25;;;16.60;99.90;;;;;;2184157;65;20198;-84
2022/04/14 10:32:33;;;;;;;10.70;6.95;;;16.80;99.90;;;;;;2189682;65;20275;-84
2022/04/14 10:35:18;;;;;;;8.38;5.63;;;16.80;99.90;;;;;;2176366;65;20176;-84
2022/04/14 10:38:19;;;;;;;7.97;5.32;;;16.60;99.90;;;;;;2176638;65;20706;-84
2022/04/14 10:41:12;;;;;;;7.57;5.20;;;16.70;99.90;;;;;;2178888;65;20159;-84
2022/04/14 10:43:46;;;;;;;7.45;5.15;;;17.10;99.90;;;;;;2189433;65;20627;-84
2022/04/14 10:46:17;;;;;;;6.00;4.93;;;17.30;99.90;;;;;;2185022;65;20703;-78
2022/04/14 10:49:17;;;;;;;7.57;4.63;;;17.30;99.90;;;;;;2162658;66;20230;-78
2022/04/14 10:51:50;;;;;;;6.95;4.47;;;17.50;99.90;;;;;;2161595;66;20790;-77
2022/04/14 10:55:00;;;;;;;4.78;3.78;;;17.50;99.90;;;;;;2169931;66;20350;-78
2022/04/14 10:57:40;;;;;;;6.70;4.47;;;17.60;99.90;;;;;;2173680;66;20206;-79
2022/04/14 11:00:19;;;;;;;5.88;3.50;;;18.00;99.90;;;;;;2170735;66;20349;-79
2022/04/14 11:03:15;;;;;;;4.97;3.05;;;18.30;97.20;;;;;;2163027;66;20331;-79
2022/04/14 11:05:56;;;;;;;4.53;3.45;;;18.80;93.70;;;;;;2179605;65;20678;-79
2022/04/14 11:08:47;;;;;;;9.77;4.68;;;19.40;94.20;;;;;;2208067;64;20212;-81
2022/04/14 11:11:23;;;;;;;7.90;3.10;;;19.90;89.70;;;;;;2213397;64;20749;-80
2022/04/14 11:13:59;;;;;;;6.13;2.95;;;20.10;88.20;;;;;;2214615;64;20195;-79
2022/04/14 11:16:49;;;;;;;4.25;2.88;;;20.20;82.10;;;;;;2207961;64;20195;-81
2022/04/14 11:19:26;;;;;;;5.90;4.43;;;20.70;78.10;;;;;;2211769;64;20283;-78
2022/04/14 11:22:12;;;;;;;6.32;4.60;;;21.40;78.80;;;;;;2212942;64;20196;-79
2022/04/14 11:25:04;;;;;;;5.25;4.20;;;21.50;78.10;;;;;;2203338;65;20180;-78
2022/04/14 11:27:41;;;;;;;7.20;4.80;;;21.30;78.20;;;;;;2206606;65;20185;-79
2022/04/14 11:30:54;;;;;;;6.63;4.65;;;21.50;76.30;;;;;;2202948;65;20224;-81
2022/04/14 11:33:32;;;;;;;5.57;3.45;;;22.10;72.50;;;;;;2211104;65;20156;-81
2022/04/14 11:36:20;;;;;;;4.30;3.37;;;22.70;71.70;;;;;;2207686;65;20214;-79
2022/04/14 11:39:04;;;;;;;4.88;3.80;;;23.10;66.20;;;;;;2198829;65;20306;-80
2022/04/14 11:41:49;;;;;;;4.37;3.23;;;23.60;64.70;;;;;;2184037;65;20266;-79
2022/04/14 11:44:32;;;;;;;5.30;2.95;;;24.10;62.60;;;;;;2177320;65;20511;-78
2022/04/14 11:47:17;;;;;;;6.43;3.75;;;24.30;59.70;;;;;;2170324;66;20349;-80
2022/04/14 11:50:00;;;;;;;5.40;3.65;;;24.40;60.20;;;;;;2155527;66;20233;-79
2022/04/14 11:52:44;;;;;;;5.80;4.35;;;24.60;59.40;;;;;;2143506;67;20368;-78
2022/04/14 11:55:54;;;;;;;6.82;4.18;;;24.90;59.00;;;;;;2142975;67;20359;-82
2022/04/14 11:58:37;;;;;;;5.63;3.95;;;25.00;58.90;;;;;;2122923;67;20273;-80
2022/04/14 12:01:22;;;;;;;5.50;3.65;;;25.30;60.00;;;;;;2107243;68;20399;-79
2022/04/14 12:04:07;;;;;;;;;;;25.40;58.10;;;;;;2100854;68;20850;-79
2022/04/14 12:06:58;;;;;;;5.05;3.55;;;25.50;56.50;;;;;;2100426;68;20070;-80
2022/04/14 12:10:02;;;;;;;4.93;4.43;;;25.10;56.80;;;;;;2093242;68;20331;-81
2022/04/14 12:13:05;;;;;;;5.97;4.50;;;24.90;56.90;;;;;;2091775;68;20180;-82
2022/04/14 12:16:04;;;;;;;5.65;3.50;;;24.90;58.10;;;;;;2092200;68;20317;-80
2022/04/14 12:18:55;;;;;;;5.45;3.22;;;24.40;58.20;;;;;;2083595;68;20778;-81
2022/04/14 12:21:42;;;;;;;4.00;3.35;;;24.20;57.80;;;;;;2092908;68;20922;-79
2022/04/14 12:24:13;;;;;;;4.85;3.10;;;23.90;58.20;;;;;;2108207;67;20178;-80
2022/04/14 12:26:50;;;;;;;5.03;3.58;;;23.80;58.20;;;;;;2116879;67;20381;-80
2022/04/14 12:29:23;;;;;;;4.32;2.80;;;23.70;58.40;;;;;;2123826;67;20325;-80
2022/04/14 12:32:11;;;;;;;7.78;3.63;;;23.40;58.40;;;;;;2134552;67;20233;-81
2022/04/14 12:35:06;;;;;;;5.28;2.65;;;22.90;58.50;;;;;;2133794;67;20790;-80
2022/04/14 12:37:43;;;;;;;5.05;3.22;;;22.40;59.90;;;;;;2146650;66;20162;-82
2022/04/14 12:40:25;;;;;;;11.15;3.72;;;22.20;61.00;;;;;;2158400;66;20295;-81
2022/04/14 12:43:05;;;;;;;5.57;3.20;;;22.10;61.40;;;;;;2156837;66;20287;-80
2022/04/14 12:45:45;;;;;;;4.10;2.47;;;21.90;61.60;;;;;;2170463;65;20792;-86
2022/04/14 12:48:37;;;;;;;6.72;2.78;;;21.40;61.70;;;;;;2186603;65;20631;-85
2022/04/14 12:51:34;;;;;;;7.53;3.80;;;21.10;62.20;;;;;;2195212;65;20603;-80
2022/04/14 12:54:13;;;;;;;7.18;4.60;;;20.70;63.50;;;;;;2196249;65;20632;-80
2022/04/14 12:57:08;;;;;;;4.60;3.60;;;20.60;64.80;;;;;;2184160;65;20198;-78
2022/04/14 13:00:10;;;;;;;9.98;7.00;;;20.50;65.90;;;;;;2183903;65;20293;-79
2022/04/14 13:03:02;;;;;;;12.05;7.70;;;20.30;69.80;;;;;;2179158;65;20190;-80
2022/04/14 13:05:57;;;;;;;10.55;7.32;;;20.20;72.00;;;;;;2170032;66;20184;-80
2022/04/14 13:08:33;;;;;;;5.78;4.93;;;20.00;73.10;;;;;;2170640;65;20176;-81
2022/04/14 13:11:45;;;;;;;9.63;7.07;;;19.90;73.50;;;;;;2187675;65;20626;-79
2022/04/14 13:16:54;;;;;;;11.40;7.35;;;19.80;75.00;;;;;;2205999;64;990542;-75
2022/04/14 13:19:31;;;;;;;13.40;8.05;;;19.80;75.80;;;;;;2228755;64;20652;-76
2022/04/14 13:22:13;;;;;;;11.48;8.25;;;19.90;77.30;;;;;;2206350;64;20251;-75
2022/04/14 13:24:55;;;;;;;11.95;8.70;;;19.90;78.10;;;;;;2190442;65;20254;-75
2022/04/14 13:27:39;;;;;;;9.88;8.18;;;19.90;78.70;;;;;;2179081;65;21009;-75
2022/04/14 13:30:23;;;;;;;16.40;8.38;;;19.80;79.10;;;;;;2184169;65;20281;-75
2022/04/14 13:33:06;;;;;;;17.10;8.20;;;19.70;79.90;;;;;;2178190;65;20179;-75
2022/04/14 13:35:48;;;;;;;12.48;9.02;;;19.70;80.40;;;;;;2163440;66;20440;-75
2022/04/14 13:38:31;;;;;;;13.20;8.50;;;19.60;81.00;;;;;;2154352;66;20274;-73
2022/04/14 13:41:20;;;;;;;11.52;8.23;;;19.60;81.60;;;;;;2154223;66;20943;-74
2022/04/14 13:44:07;;;;;;;13.18;8.25;;;19.60;81.90;;;;;;2140167;66;20308;-72
2022/04/14 13:47:03;;;;;;;11.02;7.93;;;19.40;81.60;;;;;;2130458;67;20176;-75
2022/04/14 13:49:45;;;;;;;12.50;7.95;;;19.20;83.00;;;;;;2125338;67;20270;-74
2022/04/14 13:52:28;;;;;;;10.00;8.65;;;19.10;83.40;;;;;;2122958;67;20236;-74
2022/04/14 13:55:20;;;;;;;9.68;7.43;;;19.10;83.20;;;;;;2102839;67;20254;-74
2022/04/14 13:58:05;;;;;;;13.35;7.57;;;19.30;83.40;;;;;;2117805;67;20342;-73
2022/04/14 14:00:54;;;;;;;9.15;6.60;;;20.00;81.60;;;;;;2121834;67;20700;-73
2022/04/14 14:03:36;;;;;;;9.63;6.80;;;20.50;78.80;;;;;;2117369;67;20210;-72
2022/04/14 14:06:19;;;;;;;10.48;6.63;;;20.90;76.20;;;;;;2139180;66;20230;-74